sensor_id;sensor_type;location;lat;lon;timestamp;temperature;humidity
44305;DHT22;30019;50.576;8.568;2022-09-12T00:00:41;11.90;99.90
44305;DHT22;30019;50.576;8.568;2022-09-12T00:03:07;11.90;99.90
44305;DHT22;30019;50.576;8.568;2022-09-12T00:05:33;11.80;99.90
44305;DHT22;30019;50.576;8.568;2022-09-12T00:07:59;11.80;99.90
44305;DHT22;30019;50.576;8.568;2022-09-12T00:10:25;11.80;99.90
44305;DHT22;30019;50.576;8.568;2022-09-12T00:12:51;11.80;99.90
44305;DHT22;30019;50.576;8.568;2022-09-12T00:15:17;11.70;99.90
44305;DHT22;30019;50.576;8.568;2022-09-12T00:17:43;11.70;99.90
44305;DHT22;30019;50.576;8.568;2022-09-12T00:20:09;11.60;99.90
44305;DHT22;30019;50.576;8.568;2022-09-12T00:22:35;11.60;99.90
44305;DHT22;30019;50.576;8.568;2022-09-12T00:25:01;11.60;99.90
44305;DHT22;30019;50.576;8.568;2022-09-12T00:27:27;11.50;99.90
44305;DHT22;30019;50.576;8.568;2022-09-12T00:29:53;11.60;99.90
44305;DHT22;30019;50.576;8.568;2022-09-12T00:32:20;11.50;99.90
44305;DHT22;30019;50.576;8.568;2022-09-12T00:34:46;11.50;99.90
44305;DHT22;30019;50.576;8.568;2022-09-12T00:37:12;11.40;99.90
44305;DHT22;30019;50.576;8.568;2022-09-12T00:39:38;11.50;99.90
44305;DHT22;30019;50.576;8.568;2022-09-12T00:42:04;11.40;99.90
44305;DHT22;30019;50.576;8.568;2022-09-12T00:47:23;11.40;99.90
44305;DHT22;30019;50.576;8.568;2022-09-12T00:52:23;11.40;99.90
44305;DHT22;30019;50.576;8.568;2022-09-12T00:55:14;11.40;99.90
44305;DHT22;30019;50.576;8.568;2022-09-12T00:57:51;11.30;99.90
44305;DHT22;30019;50.576;8.568;2022-09-12T01:00:20;11.30;99.90
44305;DHT22;30019;50.576;8.568;2022-09-12T01:02:49;11.30;99.90
44305;DHT22;30019;50.576;8.568;2022-09-12T01:05:16;11.30;99.90
44305;DHT22;30019;50.576;8.568;2022-09-12T01:07:42;11.30;99.90
44305;DHT22;30019;50.576;8.568;2022-09-12T01:10:09;11.20;99.90
44305;DHT22;30019;50.576;8.568;2022-09-12T01:12:38;11.30;99.90
44305;DHT22;30019;50.576;8.568;2022-09-12T01:15:05;11.30;99.90
44305;DHT22;30019;50.576;8.568;2022-09-12T01:24:08;11.30;99.90
44305;DHT22;30019;50.576;8.568;2022-09-12T01:26:56;11.20;99.90
44305;DHT22;30019;50.576;8.568;2022-09-12T01:35:03;11.10;99.90
44305;DHT22;30019;50.576;8.568;2022-09-12T01:40:34;11.10;99.90
44305;DHT22;30019;50.576;8.568;2022-09-12T01:43:18;11.10;99.90
44305;DHT22;30019;50.576;8.568;2022-09-12T01:45:59;11.10;99.90
44305;DHT22;30019;50.576;8.568;2022-09-12T01:48:45;11.00;99.90
44305;DHT22;30019;50.576;8.568;2022-09-12T01:51:33;11.00;99.90
44305;DHT22;30019;50.576;8.568;2022-09-12T01:54:06;11.00;99.90
44305;DHT22;30019;50.576;8.568;2022-09-12T01:56:34;11.00;99.90
44305;DHT22;30019;50.576;8.568;2022-09-12T02:01:35;10.80;99.90
44305;DHT22;30019;50.576;8.568;2022-09-12T02:04:07;10.90;99.90
44305;DHT22;30019;50.576;8.568;2022-09-12T02:06:42;10.80;99.90
44305;DHT22;30019;50.576;8.568;2022-09-12T02:09:15;10.80;99.90
44305;DHT22;30019;50.576;8.568;2022-09-12T02:11:43;10.80;99.90
44305;DHT22;30019;50.576;8.568;2022-09-12T02:14:17;10.80;99.90
44305;DHT22;30019;50.576;8.568;2022-09-12T02:16:50;10.80;99.90
44305;DHT22;30019;50.576;8.568;2022-09-12T02:19:22;10.70;99.90
44305;DHT22;30019;50.576;8.568;2022-09-12T02:21:59;10.70;99.90
44305;DHT22;30019;50.576;8.568;2022-09-12T02:24:36;10.60;99.90
44305;DHT22;30019;50.576;8.568;2022-09-12T02:27:17;10.60;99.90
44305;DHT22;30019;50.576;8.568;2022-09-12T02:29:44;10.60;99.90
44305;DHT22;30019;50.576;8.568;2022-09-12T02:40:00;10.60;99.90
44305;DHT22;30019;50.576;8.568;2022-09-12T02:42:26;10.60;99.90
44305;DHT22;30019;50.576;8.568;2022-09-12T02:44:53;10.60;99.90
44305;DHT22;30019;50.576;8.568;2022-09-12T02:49:58;10.60;99.90
44305;DHT22;30019;50.576;8.568;2022-09-12T02:52:25;10.60;99.90
44305;DHT22;30019;50.576;8.568;2022-09-12T02:54:52;10.60;99.90
44305;DHT22;30019;50.576;8.568;2022-09-12T02:57:19;10.60;99.90
44305;DHT22;30019;50.576;8.568;2022-09-12T02:59:46;10.60;99.90
44305;DHT22;30019;50.576;8.568;2022-09-12T03:02:35;10.70;99.90
44305;DHT22;30019;50.576;8.568;2022-09-12T03:08:11;10.70;99.90
44305;DHT22;30019;50.576;8.568;2022-09-12T03:16:52;10.80;99.90
44305;DHT22;30019;50.576;8.568;2022-09-12T03:19:51;10.80;99.90
44305;DHT22;30019;50.576;8.568;2022-09-12T03:30:15;10.90;99.90
44305;DHT22;30019;50.576;8.568;2022-09-12T03:32:45;10.90;99.90
44305;DHT22;30019;50.576;8.568;2022-09-12T03:35:12;10.90;99.90
44305;DHT22;30019;50.576;8.568;2022-09-12T03:37:39;10.90;99.90
44305;DHT22;30019;50.576;8.568;2022-09-12T03:40:06;10.80;99.90
44305;DHT22;30019;50.576;8.568;2022-09-12T03:42:32;10.90;99.90
44305;DHT22;30019;50.576;8.568;2022-09-12T03:44:57;10.90;99.90
44305;DHT22;30019;50.576;8.568;2022-09-12T03:47:23;11.00;99.90
44305;DHT22;30019;50.576;8.568;2022-09-12T03:49:49;11.00;99.90
44305;DHT22;30019;50.576;8.568;2022-09-12T03:52:14;11.10;99.90
44305;DHT22;30019;50.576;8.568;2022-09-12T03:54:40;11.20;99.90
44305;DHT22;30019;50.576;8.568;2022-09-12T03:57:05;11.10;99.90
44305;DHT22;30019;50.576;8.568;2022-09-12T03:59:31;11.00;99.90
44305;DHT22;30019;50.576;8.568;2022-09-12T04:01:57;11.00;99.90
44305;DHT22;30019;50.576;8.568;2022-09-12T04:04:22;10.90;99.90
44305;DHT22;30019;50.576;8.568;2022-09-12T04:06:48;11.00;99.90
44305;DHT22;30019;50.576;8.568;2022-09-12T04:09:14;11.00;99.90
44305;DHT22;30019;50.576;8.568;2022-09-12T04:11:39;11.00;99.90
44305;DHT22;30019;50.576;8.568;2022-09-12T04:14:05;11.00;99.90
44305;DHT22;30019;50.576;8.568;2022-09-12T04:16:30;10.90;99.90
44305;DHT22;30019;50.576;8.568;2022-09-12T04:18:56;10.90;99.90
44305;DHT22;30019;50.576;8.568;2022-09-12T04:21:22;10.90;99.90
44305;DHT22;30019;50.576;8.568;2022-09-12T04:23:48;10.90;99.90
44305;DHT22;30019;50.576;8.568;2022-09-12T04:26:15;11.00;99.90
44305;DHT22;30019;50.576;8.568;2022-09-12T04:28:42;11.00;99.90
44305;DHT22;30019;50.576;8.568;2022-09-12T04:31:11;11.00;99.90
44305;DHT22;30019;50.576;8.568;2022-09-12T04:33:38;11.10;99.90
44305;DHT22;30019;50.576;8.568;2022-09-12T04:36:06;11.20;99.90
44305;DHT22;30019;50.576;8.568;2022-09-12T04:38:33;11.30;99.90
44305;DHT22;30019;50.576;8.568;2022-09-12T04:40:59;11.30;99.90
44305;DHT22;30019;50.576;8.568;2022-09-12T04:43:25;11.30;99.90
44305;DHT22;30019;50.576;8.568;2022-09-12T04:45:50;11.30;99.90
44305;DHT22;30019;50.576;8.568;2022-09-12T04:48:16;11.30;99.90
44305;DHT22;30019;50.576;8.568;2022-09-12T04:50:41;11.30;99.90
44305;DHT22;30019;50.576;8.568;2022-09-12T04:53:07;11.20;99.90
44305;DHT22;30019;50.576;8.568;2022-09-12T04:55:33;11.20;99.90
44305;DHT22;30019;50.576;8.568;2022-09-12T04:58:00;11.00;99.90
44305;DHT22;30019;50.576;8.568;2022-09-12T05:00:26;10.90;99.90
44305;DHT22;30019;50.576;8.568;2022-09-12T05:02:52;11.00;99.90
44305;DHT22;30019;50.576;8.568;2022-09-12T05:05:18;10.90;99.90
44305;DHT22;30019;50.576;8.568;2022-09-12T05:07:43;10.90;99.90
44305;DHT22;30019;50.576;8.568;2022-09-12T05:10:09;10.90;99.90
44305;DHT22;30019;50.576;8.568;2022-09-12T05:12:35;10.90;99.90
44305;DHT22;30019;50.576;8.568;2022-09-12T05:15:01;11.00;99.90
44305;DHT22;30019;50.576;8.568;2022-09-12T05:17:29;11.00;99.90
44305;DHT22;30019;50.576;8.568;2022-09-12T05:19:55;10.90;99.90
44305;DHT22;30019;50.576;8.568;2022-09-12T05:22:20;11.00;99.90
44305;DHT22;30019;50.576;8.568;2022-09-12T05:24:47;11.00;99.90
44305;DHT22;30019;50.576;8.568;2022-09-12T05:27:13;11.10;99.90
44305;DHT22;30019;50.576;8.568;2022-09-12T05:29:39;11.10;99.90
44305;DHT22;30019;50.576;8.568;2022-09-12T05:32:04;11.00;99.90
44305;DHT22;30019;50.576;8.568;2022-09-12T05:34:30;11.00;99.90
44305;DHT22;30019;50.576;8.568;2022-09-12T05:36:56;11.00;99.90
44305;DHT22;30019;50.576;8.568;2022-09-12T05:39:21;10.80;99.90
44305;DHT22;30019;50.576;8.568;2022-09-12T05:41:47;10.80;99.90
44305;DHT22;30019;50.576;8.568;2022-09-12T05:44:13;10.90;99.90
44305;DHT22;30019;50.576;8.568;2022-09-12T05:46:43;10.90;99.90
44305;DHT22;30019;50.576;8.568;2022-09-12T05:49:12;10.80;99.90
44305;DHT22;30019;50.576;8.568;2022-09-12T05:51:41;10.70;99.90
44305;DHT22;30019;50.576;8.568;2022-09-12T05:54:09;10.70;99.90
44305;DHT22;30019;50.576;8.568;2022-09-12T05:56:42;10.80;99.90
44305;DHT22;30019;50.576;8.568;2022-09-12T05:59:19;10.80;99.90
44305;DHT22;30019;50.576;8.568;2022-09-12T06:01:45;11.00;99.90
44305;DHT22;30019;50.576;8.568;2022-09-12T06:04:11;11.10;99.90
44305;DHT22;30019;50.576;8.568;2022-09-12T06:06:42;11.20;99.90
44305;DHT22;30019;50.576;8.568;2022-09-12T06:09:09;11.10;99.90
44305;DHT22;30019;50.576;8.568;2022-09-12T06:11:36;11.10;99.90
44305;DHT22;30019;50.576;8.568;2022-09-12T06:14:03;11.20;99.90
44305;DHT22;30019;50.576;8.568;2022-09-12T06:16:31;11.30;99.90
44305;DHT22;30019;50.576;8.568;2022-09-12T06:18:59;11.50;99.90
44305;DHT22;30019;50.576;8.568;2022-09-12T06:21:26;11.50;99.90
44305;DHT22;30019;50.576;8.568;2022-09-12T06:23:53;11.40;99.90
44305;DHT22;30019;50.576;8.568;2022-09-12T06:26:19;11.40;99.90
44305;DHT22;30019;50.576;8.568;2022-09-12T06:28:48;11.30;99.90
44305;DHT22;30019;50.576;8.568;2022-09-12T06:31:20;11.30;99.90
44305;DHT22;30019;50.576;8.568;2022-09-12T06:33:48;11.40;99.90
44305;DHT22;30019;50.576;8.568;2022-09-12T06:36:20;11.30;99.90
44305;DHT22;30019;50.576;8.568;2022-09-12T06:38:46;11.40;99.90
44305;DHT22;30019;50.576;8.568;2022-09-12T06:41:13;11.60;99.90
44305;DHT22;30019;50.576;8.568;2022-09-12T06:43:40;11.70;99.90
44305;DHT22;30019;50.576;8.568;2022-09-12T06:46:06;11.80;99.90
44305;DHT22;30019;50.576;8.568;2022-09-12T06:48:32;12.00;99.90
44305;DHT22;30019;50.576;8.568;2022-09-12T06:51:00;12.10;99.90
44305;DHT22;30019;50.576;8.568;2022-09-12T06:53:27;12.10;99.90
44305;DHT22;30019;50.576;8.568;2022-09-12T06:55:58;12.20;99.90
44305;DHT22;30019;50.576;8.568;2022-09-12T06:58:25;12.20;99.90
44305;DHT22;30019;50.576;8.568;2022-09-12T07:00:51;12.30;99.90
44305;DHT22;30019;50.576;8.568;2022-09-12T07:03:17;12.30;99.90
44305;DHT22;30019;50.576;8.568;2022-09-12T07:05:44;12.40;99.90
44305;DHT22;30019;50.576;8.568;2022-09-12T07:08:10;12.50;99.90
44305;DHT22;30019;50.576;8.568;2022-09-12T07:10:35;12.60;99.90
44305;DHT22;30019;50.576;8.568;2022-09-12T07:13:01;12.60;99.90
44305;DHT22;30019;50.576;8.568;2022-09-12T07:15:27;12.80;99.90
44305;DHT22;30019;50.576;8.568;2022-09-12T07:17:52;12.80;99.90
44305;DHT22;30019;50.576;8.568;2022-09-12T07:20:18;12.90;99.90
44305;DHT22;30019;50.576;8.568;2022-09-12T07:22:44;13.00;99.90
44305;DHT22;30019;50.576;8.568;2022-09-12T07:25:09;13.10;99.90
44305;DHT22;30019;50.576;8.568;2022-09-12T07:27:35;13.10;99.90
44305;DHT22;30019;50.576;8.568;2022-09-12T07:30:03;13.20;99.90
44305;DHT22;30019;50.576;8.568;2022-09-12T07:32:29;13.30;99.90
44305;DHT22;30019;50.576;8.568;2022-09-12T07:34:55;13.40;99.90
44305;DHT22;30019;50.576;8.568;2022-09-12T07:37:20;13.40;99.90
44305;DHT22;30019;50.576;8.568;2022-09-12T07:39:46;13.50;99.90
44305;DHT22;30019;50.576;8.568;2022-09-12T07:42:12;13.60;99.90
44305;DHT22;30019;50.576;8.568;2022-09-12T07:44:39;13.70;99.90
44305;DHT22;30019;50.576;8.568;2022-09-12T07:47:04;14.00;99.90
44305;DHT22;30019;50.576;8.568;2022-09-12T07:49:30;14.10;99.90
44305;DHT22;30019;50.576;8.568;2022-09-12T07:51:55;14.20;99.90
44305;DHT22;30019;50.576;8.568;2022-09-12T07:54:22;14.30;99.90
44305;DHT22;30019;50.576;8.568;2022-09-12T07:56:47;14.10;99.90
44305;DHT22;30019;50.576;8.568;2022-09-12T07:59:13;14.20;99.90
44305;DHT22;30019;50.576;8.568;2022-09-12T08:01:38;14.50;99.90
44305;DHT22;30019;50.576;8.568;2022-09-12T08:04:05;14.80;99.90
44305;DHT22;30019;50.576;8.568;2022-09-12T08:06:32;14.80;99.90
44305;DHT22;30019;50.576;8.568;2022-09-12T08:09:00;15.00;99.90
44305;DHT22;30019;50.576;8.568;2022-09-12T08:11:27;15.10;99.90
44305;DHT22;30019;50.576;8.568;2022-09-12T08:13:54;15.20;99.90
44305;DHT22;30019;50.576;8.568;2022-09-12T08:16:25;15.20;99.90
44305;DHT22;30019;50.576;8.568;2022-09-12T08:18:51;15.20;99.90
44305;DHT22;30019;50.576;8.568;2022-09-12T08:21:29;15.30;99.90
44305;DHT22;30019;50.576;8.568;2022-09-12T08:24:00;15.50;99.90
44305;DHT22;30019;50.576;8.568;2022-09-12T08:26:26;15.70;99.90
44305;DHT22;30019;50.576;8.568;2022-09-12T08:28:52;15.90;99.90
44305;DHT22;30019;50.576;8.568;2022-09-12T08:31:21;15.80;99.90
44305;DHT22;30019;50.576;8.568;2022-09-12T08:33:46;15.80;99.90
44305;DHT22;30019;50.576;8.568;2022-09-12T08:36:14;15.70;99.90
44305;DHT22;30019;50.576;8.568;2022-09-12T08:38:41;15.80;99.90
44305;DHT22;30019;50.576;8.568;2022-09-12T08:46:37;16.60;99.90
44305;DHT22;30019;50.576;8.568;2022-09-12T08:49:09;16.80;99.90
44305;DHT22;30019;50.576;8.568;2022-09-12T08:51:36;17.20;99.90
44305;DHT22;30019;50.576;8.568;2022-09-12T08:54:04;17.60;99.90
44305;DHT22;30019;50.576;8.568;2022-09-12T08:56:35;18.70;99.90
44305;DHT22;30019;50.576;8.568;2022-09-12T08:59:02;19.30;99.90
44305;DHT22;30019;50.576;8.568;2022-09-12T09:01:39;19.50;99.90
44305;DHT22;30019;50.576;8.568;2022-09-12T09:04:36;19.50;99.90
44305;DHT22;30019;50.576;8.568;2022-09-12T09:07:29;19.90;99.90
44305;DHT22;30019;50.576;8.568;2022-09-12T09:10:16;20.30;99.90
44305;DHT22;30019;50.576;8.568;2022-09-12T09:13:08;20.40;99.90
44305;DHT22;30019;50.576;8.568;2022-09-12T09:21:01;20.40;99.90
44305;DHT22;30019;50.576;8.568;2022-09-12T09:23:44;20.00;99.90
44305;DHT22;30019;50.576;8.568;2022-09-12T09:26:12;19.90;99.90
44305;DHT22;30019;50.576;8.568;2022-09-12T09:28:47;19.90;99.90
44305;DHT22;30019;50.576;8.568;2022-09-12T09:31:21;20.00;99.90
44305;DHT22;30019;50.576;8.568;2022-09-12T09:33:49;20.20;99.90
44305;DHT22;30019;50.576;8.568;2022-09-12T09:36:21;20.20;99.90
44305;DHT22;30019;50.576;8.568;2022-09-12T09:39:08;20.00;99.90
44305;DHT22;30019;50.576;8.568;2022-09-12T09:44:20;19.90;99.90
44305;DHT22;30019;50.576;8.568;2022-09-12T09:46:51;20.00;99.90
44305;DHT22;30019;50.576;8.568;2022-09-12T09:49:18;19.90;99.90
44305;DHT22;30019;50.576;8.568;2022-09-12T09:51:46;20.40;99.90
44305;DHT22;30019;50.576;8.568;2022-09-12T09:54:24;20.60;99.90
44305;DHT22;30019;50.576;8.568;2022-09-12T09:56:50;20.60;99.90
44305;DHT22;30019;50.576;8.568;2022-09-12T09:59:17;20.80;99.90
44305;DHT22;30019;50.576;8.568;2022-09-12T10:01:50;21.00;99.90
44305;DHT22;30019;50.576;8.568;2022-09-12T10:04:27;21.40;99.90
44305;DHT22;30019;50.576;8.568;2022-09-12T10:06:59;21.60;99.90
44305;DHT22;30019;50.576;8.568;2022-09-12T10:09:33;21.70;99.90
44305;DHT22;30019;50.576;8.568;2022-09-12T10:12:00;22.10;99.90
44305;DHT22;30019;50.576;8.568;2022-09-12T10:14:34;22.30;99.90
44305;DHT22;30019;50.576;8.568;2022-09-12T10:17:01;22.80;99.90
44305;DHT22;30019;50.576;8.568;2022-09-12T10:19:38;23.10;99.90
44305;DHT22;30019;50.576;8.568;2022-09-12T10:22:16;23.70;99.90
44305;DHT22;30019;50.576;8.568;2022-09-12T10:24:48;23.60;99.90
44305;DHT22;30019;50.576;8.568;2022-09-12T10:27:21;24.40;99.80
44305;DHT22;30019;50.576;8.568;2022-09-12T10:29:53;24.80;98.90
44305;DHT22;30019;50.576;8.568;2022-09-12T10:32:27;24.90;99.00
44305;DHT22;30019;50.576;8.568;2022-09-12T10:34:57;25.20;97.40
44305;DHT22;30019;50.576;8.568;2022-09-12T10:37:33;25.40;96.40
44305;DHT22;30019;50.576;8.568;2022-09-12T10:40:01;25.70;96.40
44305;DHT22;30019;50.576;8.568;2022-09-12T10:42:54;26.20;95.30
44305;DHT22;30019;50.576;8.568;2022-09-12T10:45:22;25.90;94.50
44305;DHT22;30019;50.576;8.568;2022-09-12T10:47:50;26.00;94.50
44305;DHT22;30019;50.576;8.568;2022-09-12T10:52:52;26.70;92.80
44305;DHT22;30019;50.576;8.568;2022-09-12T10:55:24;26.00;93.70
44305;DHT22;30019;50.576;8.568;2022-09-12T10:58:00;25.60;93.60
44305;DHT22;30019;50.576;8.568;2022-09-12T11:00:30;26.00;94.50
44305;DHT22;30019;50.576;8.568;2022-09-12T11:03:31;26.60;92.40
44305;DHT22;30019;50.576;8.568;2022-09-12T11:06:01;26.80;91.80
44305;DHT22;30019;50.576;8.568;2022-09-12T11:12:01;26.80;92.30
44305;DHT22;30019;50.576;8.568;2022-09-12T11:14:36;27.20;90.60
44305;DHT22;30019;50.576;8.568;2022-09-12T11:17:15;27.80;87.90
44305;DHT22;30019;50.576;8.568;2022-09-12T11:20:01;28.20;86.30
44305;DHT22;30019;50.576;8.568;2022-09-12T11:25:29;27.40;87.30
44305;DHT22;30019;50.576;8.568;2022-09-12T11:28:05;28.10;82.60
44305;DHT22;30019;50.576;8.568;2022-09-12T11:33:44;29.20;80.90
44305;DHT22;30019;50.576;8.568;2022-09-12T11:39:01;30.50;76.20
44305;DHT22;30019;50.576;8.568;2022-09-12T11:41:33;30.00;74.50
44305;DHT22;30019;50.576;8.568;2022-09-12T11:44:40;29.60;74.60
44305;DHT22;30019;50.576;8.568;2022-09-12T11:47:10;30.30;74.60
44305;DHT22;30019;50.576;8.568;2022-09-12T11:49:44;30.60;73.60
44305;DHT22;30019;50.576;8.568;2022-09-12T11:52:25;30.50;70.20
44305;DHT22;30019;50.576;8.568;2022-09-12T11:57:53;30.10;71.80
44305;DHT22;30019;50.576;8.568;2022-09-12T12:00:28;31.30;67.90
44305;DHT22;30019;50.576;8.568;2022-09-12T12:08:01;29.60;71.90
44305;DHT22;30019;50.576;8.568;2022-09-12T12:10:38;29.80;70.30
44305;DHT22;30019;50.576;8.568;2022-09-12T12:15:59;28.90;71.60
44305;DHT22;30019;50.576;8.568;2022-09-12T12:18:27;29.20;71.00
44305;DHT22;30019;50.576;8.568;2022-09-12T12:20:54;29.60;69.00
44305;DHT22;30019;50.576;8.568;2022-09-12T12:23:30;29.60;71.60
44305;DHT22;30019;50.576;8.568;2022-09-12T12:25:58;29.10;70.90
44305;DHT22;30019;50.576;8.568;2022-09-12T12:31:15;29.90;70.00
44305;DHT22;30019;50.576;8.568;2022-09-12T12:36:39;29.90;68.60
44305;DHT22;30019;50.576;8.568;2022-09-12T12:42:02;29.70;68.50
44305;DHT22;30019;50.576;8.568;2022-09-12T12:47:30;30.30;68.00
44305;DHT22;30019;50.576;8.568;2022-09-12T12:50:01;29.90;67.40
44305;DHT22;30019;50.576;8.568;2022-09-12T12:52:30;29.90;69.00
44305;DHT22;30019;50.576;8.568;2022-09-12T12:54:58;29.40;66.90
44305;DHT22;30019;50.576;8.568;2022-09-12T12:57:50;29.20;68.70
44305;DHT22;30019;50.576;8.568;2022-09-12T13:05:37;28.50;68.80
44305;DHT22;30019;50.576;8.568;2022-09-12T13:08:27;28.30;69.40
44305;DHT22;30019;50.576;8.568;2022-09-12T13:10:58;27.90;73.00
44305;DHT22;30019;50.576;8.568;2022-09-12T13:13:30;28.10;69.90
44305;DHT22;30019;50.576;8.568;2022-09-12T13:15:56;27.80;71.00
44305;DHT22;30019;50.576;8.568;2022-09-12T13:18:48;27.50;70.40
44305;DHT22;30019;50.576;8.568;2022-09-12T13:21:18;27.20;73.00
44305;DHT22;30019;50.576;8.568;2022-09-12T13:24:12;26.80;72.90
44305;DHT22;30019;50.576;8.568;2022-09-12T13:26:43;26.40;79.20
44305;DHT22;30019;50.576;8.568;2022-09-12T13:29:22;25.40;84.10
44305;DHT22;30019;50.576;8.568;2022-09-12T13:31:53;24.70;82.20
44305;DHT22;30019;50.576;8.568;2022-09-12T13:34:28;24.70;86.00
44305;DHT22;30019;50.576;8.568;2022-09-12T13:42:37;25.30;84.00
44305;DHT22;30019;50.576;8.568;2022-09-12T13:45:14;25.20;80.70
44305;DHT22;30019;50.576;8.568;2022-09-12T13:47:46;25.10;82.40
44305;DHT22;30019;50.576;8.568;2022-09-12T13:50:24;25.00;81.10
44305;DHT22;30019;50.576;8.568;2022-09-12T13:53:13;24.90;83.70
44305;DHT22;30019;50.576;8.568;2022-09-12T13:55:41;24.90;84.10
44305;DHT22;30019;50.576;8.568;2022-09-12T14:00:41;24.90;80.20
44305;DHT22;30019;50.576;8.568;2022-09-12T14:03:27;24.80;81.80
44305;DHT22;30019;50.576;8.568;2022-09-12T14:06:12;24.80;81.90
44305;DHT22;30019;50.576;8.568;2022-09-12T14:08:39;24.80;80.60
44305;DHT22;30019;50.576;8.568;2022-09-12T14:11:10;24.90;79.00
44305;DHT22;30019;50.576;8.568;2022-09-12T14:13:36;24.80;80.80
44305;DHT22;30019;50.576;8.568;2022-09-12T14:16:04;24.60;82.80
44305;DHT22;30019;50.576;8.568;2022-09-12T14:18:36;24.30;82.60
44305;DHT22;30019;50.576;8.568;2022-09-12T14:23:55;24.30;81.00
44305;DHT22;30019;50.576;8.568;2022-09-12T14:26:22;24.40;84.50
44305;DHT22;30019;50.576;8.568;2022-09-12T14:28:49;24.50;81.40
44305;DHT22;30019;50.576;8.568;2022-09-12T14:31:22;24.50;81.80
44305;DHT22;30019;50.576;8.568;2022-09-12T14:33:53;24.70;83.80
44305;DHT22;30019;50.576;8.568;2022-09-12T14:38:54;24.90;80.30
44305;DHT22;30019;50.576;8.568;2022-09-12T14:41:24;24.70;80.00
44305;DHT22;30019;50.576;8.568;2022-09-12T14:43:53;24.70;79.80
44305;DHT22;30019;50.576;8.568;2022-09-12T14:46:28;24.60;79.30
44305;DHT22;30019;50.576;8.568;2022-09-12T14:49:06;24.70;82.60
44305;DHT22;30019;50.576;8.568;2022-09-12T14:51:47;24.70;78.50
44305;DHT22;30019;50.576;8.568;2022-09-12T14:56:54;24.80;79.60
44305;DHT22;30019;50.576;8.568;2022-09-12T14:59:38;24.70;79.80
44305;DHT22;30019;50.576;8.568;2022-09-12T15:04:51;25.10;79.20
44305;DHT22;30019;50.576;8.568;2022-09-12T15:13:08;25.00;77.60
44305;DHT22;30019;50.576;8.568;2022-09-12T15:15:40;24.90;76.60
44305;DHT22;30019;50.576;8.568;2022-09-12T15:18:07;24.80;78.70
44305;DHT22;30019;50.576;8.568;2022-09-12T15:20:40;24.70;78.00
44305;DHT22;30019;50.576;8.568;2022-09-12T15:23:11;24.80;78.10
44305;DHT22;30019;50.576;8.568;2022-09-12T15:25:38;24.70;78.10
44305;DHT22;30019;50.576;8.568;2022-09-12T15:28:19;24.70;78.60
44305;DHT22;30019;50.576;8.568;2022-09-12T15:30:47;24.50;79.90
44305;DHT22;30019;50.576;8.568;2022-09-12T15:33:14;24.30;80.70
44305;DHT22;30019;50.576;8.568;2022-09-12T15:35:40;24.30;81.70
44305;DHT22;30019;50.576;8.568;2022-09-12T15:38:06;24.20;80.20
44305;DHT22;30019;50.576;8.568;2022-09-12T15:40:31;24.20;80.30
44305;DHT22;30019;50.576;8.568;2022-09-12T15:42:57;24.20;80.00
44305;DHT22;30019;50.576;8.568;2022-09-12T15:45:26;24.00;79.80
44305;DHT22;30019;50.576;8.568;2022-09-12T15:47:53;24.00;80.90
44305;DHT22;30019;50.576;8.568;2022-09-12T15:50:19;23.80;81.60
44305;DHT22;30019;50.576;8.568;2022-09-12T15:52:45;23.80;80.80
44305;DHT22;30019;50.576;8.568;2022-09-12T15:55:22;23.80;81.10
44305;DHT22;30019;50.576;8.568;2022-09-12T15:57:48;23.60;82.20
44305;DHT22;30019;50.576;8.568;2022-09-12T16:00:14;23.50;83.50
44305;DHT22;30019;50.576;8.568;2022-09-12T16:02:42;23.40;82.00
44305;DHT22;30019;50.576;8.568;2022-09-12T16:05:13;23.30;83.70
44305;DHT22;30019;50.576;8.568;2022-09-12T16:07:40;23.20;83.20
44305;DHT22;30019;50.576;8.568;2022-09-12T16:10:07;23.00;83.80
44305;DHT22;30019;50.576;8.568;2022-09-12T16:12:32;22.90;84.30
44305;DHT22;30019;50.576;8.568;2022-09-12T16:14:58;22.90;85.80
44305;DHT22;30019;50.576;8.568;2022-09-12T16:17:23;22.80;85.60
44305;DHT22;30019;50.576;8.568;2022-09-12T16:19:49;22.90;85.50
44305;DHT22;30019;50.576;8.568;2022-09-12T16:22:15;22.90;85.80
44305;DHT22;30019;50.576;8.568;2022-09-12T16:24:41;22.80;85.80
44305;DHT22;30019;50.576;8.568;2022-09-12T16:27:06;22.80;86.20
44305;DHT22;30019;50.576;8.568;2022-09-12T16:29:32;22.80;88.00
44305;DHT22;30019;50.576;8.568;2022-09-12T16:31:57;22.70;87.20
44305;DHT22;30019;50.576;8.568;2022-09-12T16:34:23;22.70;87.10
44305;DHT22;30019;50.576;8.568;2022-09-12T16:36:49;22.60;86.90
44305;DHT22;30019;50.576;8.568;2022-09-12T16:39:14;22.60;86.90
44305;DHT22;30019;50.576;8.568;2022-09-12T16:41:40;22.60;87.20
44305;DHT22;30019;50.576;8.568;2022-09-12T16:44:07;22.40;87.00
44305;DHT22;30019;50.576;8.568;2022-09-12T16:46:32;22.40;88.40
44305;DHT22;30019;50.576;8.568;2022-09-12T16:48:59;22.40;87.70
44305;DHT22;30019;50.576;8.568;2022-09-12T16:51:31;22.30;87.40
44305;DHT22;30019;50.576;8.568;2022-09-12T16:53:57;22.20;86.90
44305;DHT22;30019;50.576;8.568;2022-09-12T16:56:23;22.10;87.40
44305;DHT22;30019;50.576;8.568;2022-09-12T16:58:49;22.00;87.20
44305;DHT22;30019;50.576;8.568;2022-09-12T17:01:20;22.00;88.90
44305;DHT22;30019;50.576;8.568;2022-09-12T17:03:47;21.90;90.00
44305;DHT22;30019;50.576;8.568;2022-09-12T17:06:15;21.80;90.00
44305;DHT22;30019;50.576;8.568;2022-09-12T17:08:43;21.70;90.90
44305;DHT22;30019;50.576;8.568;2022-09-12T17:11:12;21.50;90.90
44305;DHT22;30019;50.576;8.568;2022-09-12T17:13:39;21.50;90.90
44305;DHT22;30019;50.576;8.568;2022-09-12T17:16:06;21.40;91.40
44305;DHT22;30019;50.576;8.568;2022-09-12T17:18:32;21.30;91.20
44305;DHT22;30019;50.576;8.568;2022-09-12T17:20:58;21.20;92.40
44305;DHT22;30019;50.576;8.568;2022-09-12T17:23:23;21.20;91.80
44305;DHT22;30019;50.576;8.568;2022-09-12T17:25:49;21.10;92.80
44305;DHT22;30019;50.576;8.568;2022-09-12T17:28:19;21.00;93.00
44305;DHT22;30019;50.576;8.568;2022-09-12T17:30:45;20.80;93.90
44305;DHT22;30019;50.576;8.568;2022-09-12T17:33:11;20.70;93.90
44305;DHT22;30019;50.576;8.568;2022-09-12T17:35:37;20.60;94.50
44305;DHT22;30019;50.576;8.568;2022-09-12T17:38:06;20.40;95.10
44305;DHT22;30019;50.576;8.568;2022-09-12T17:40:34;20.30;95.30
44305;DHT22;30019;50.576;8.568;2022-09-12T17:43:00;20.30;96.60
44305;DHT22;30019;50.576;8.568;2022-09-12T17:45:26;20.10;96.20
44305;DHT22;30019;50.576;8.568;2022-09-12T17:47:52;20.00;96.40
44305;DHT22;30019;50.576;8.568;2022-09-12T17:50:18;19.90;97.00
44305;DHT22;30019;50.576;8.568;2022-09-12T17:52:44;19.80;97.80
44305;DHT22;30019;50.576;8.568;2022-09-12T17:55:10;19.60;99.20
44305;DHT22;30019;50.576;8.568;2022-09-12T17:57:37;19.60;99.70